createdAt,value
2018-03-19T00:03:37.027Z,7.00
2018-03-19T00:08:37.999Z,4.93
2018-03-19T00:13:38.956Z,6.77
2018-03-19T00:18:39.912Z,8.73
2018-03-19T00:23:40.845Z,8.33
2018-03-19T00:28:41.824Z,6.90
2018-03-19T00:33:42.762Z,6.10
2018-03-19T00:38:43.748Z,6.20
2018-03-19T00:43:44.665Z,4.90
2018-03-19T00:48:45.606Z,3.57
2018-03-19T00:53:46.526Z,4.80
2018-03-19T00:58:47.477Z,4.80
2018-03-19T01:03:48.407Z,5.60
2018-03-19T01:08:49.330Z,7.37
2018-03-19T01:13:50.266Z,9.63
2018-03-19T01:18:51.206Z,10.97
2018-03-19T01:23:52.141Z,6.43
2018-03-19T01:28:53.123Z,4.97
2018-03-19T01:33:54.045Z,5.60
2018-03-19T01:38:54.965Z,6.03
2018-03-19T01:43:55.895Z,4.07
2018-03-19T01:48:56.834Z,5.57
2018-03-19T01:53:57.760Z,6.87
2018-03-19T01:58:58.713Z,5.70
2018-03-19T02:04:00.312Z,8.03
2018-03-19T02:09:01.256Z,5.93
2018-03-19T02:14:02.198Z,6.63
2018-03-19T02:19:03.135Z,7.93
2018-03-19T02:24:04.125Z,9.13
2018-03-19T02:29:05.052Z,3.50
2018-03-19T02:34:05.979Z,8.00
2018-03-19T02:39:06.942Z,3.70
2018-03-19T02:44:07.871Z,4.20
2018-03-19T02:49:08.801Z,5.57
2018-03-19T02:54:09.780Z,6.00
2018-03-19T02:59:10.713Z,6.40
2018-03-19T03:04:12.550Z,6.97
2018-03-19T03:09:13.497Z,8.67
2018-03-19T03:14:14.442Z,19.60
2018-03-19T03:19:15.373Z,6.80
2018-03-19T03:24:17.281Z,8.13
2018-03-19T03:29:18.256Z,8.40
2018-03-19T03:34:19.189Z,11.77
2018-03-19T03:39:20.116Z,6.63
2018-03-19T03:44:21.055Z,4.83
2018-03-19T03:49:21.980Z,6.40
2018-03-19T03:54:22.914Z,7.90
2018-03-19T03:59:23.839Z,13.03
2018-03-19T04:04:24.767Z,13.63
2018-03-19T04:09:25.690Z,13.87
2018-03-19T04:14:26.635Z,8.27
2018-03-19T04:19:27.548Z,9.10
2018-03-19T04:24:28.480Z,13.73
2018-03-19T04:29:29.449Z,7.00
2018-03-19T04:34:30.378Z,11.77
2018-03-19T04:39:31.300Z,8.23
2018-03-19T04:44:32.246Z,13.13
2018-03-19T04:49:33.152Z,14.07
2018-03-19T04:54:34.086Z,8.57
2018-03-19T04:59:35.022Z,9.30
2018-03-19T05:04:35.945Z,8.57
2018-03-19T05:09:36.906Z,9.23
2018-03-19T05:14:37.903Z,9.50
2018-03-19T05:19:38.804Z,11.43
2018-03-19T05:24:39.754Z,22.00
2018-03-19T05:29:40.720Z,9.83
2018-03-19T05:34:41.655Z,11.43
2018-03-19T05:39:42.605Z,8.80
2018-03-19T05:44:43.567Z,12.40
2018-03-19T05:49:44.524Z,12.30
2018-03-19T05:54:45.460Z,9.67
2018-03-19T05:59:46.386Z,8.53
2018-03-19T06:04:47.332Z,13.00
2018-03-19T06:09:48.295Z,20.37
2018-03-19T06:14:49.250Z,16.80
2018-03-19T06:19:50.188Z,16.00
2018-03-19T06:24:51.139Z,17.23
2018-03-19T06:29:52.136Z,12.97
2018-03-19T06:34:53.082Z,14.90
2018-03-19T06:39:54.023Z,16.90
2018-03-19T06:44:55.028Z,12.40
2018-03-19T06:49:55.960Z,12.97
2018-03-19T06:54:56.879Z,18.60
2018-03-19T06:59:57.836Z,16.80
2018-03-19T07:04:58.781Z,13.47
2018-03-19T07:09:59.736Z,13.23
2018-03-19T07:15:00.666Z,19.20
2018-03-19T07:20:01.594Z,13.13
2018-03-19T07:25:02.569Z,12.97
2018-03-19T07:30:03.625Z,9.33
2018-03-19T07:35:04.562Z,9.87
2018-03-19T07:40:05.513Z,11.40
2018-03-19T07:45:06.477Z,12.53
2018-03-19T07:50:07.452Z,10.00
2018-03-19T07:55:08.380Z,11.70
2018-03-19T08:00:09.334Z,10.43
2018-03-19T08:05:10.266Z,11.93
2018-03-19T08:10:11.192Z,10.10
2018-03-19T08:15:12.124Z,17.03
2018-03-19T08:20:13.848Z,13.47
2018-03-19T08:25:14.804Z,13.77
2018-03-19T08:30:15.798Z,11.30
2018-03-19T08:35:16.761Z,6.97
2018-03-19T08:40:17.726Z,15.83
2018-03-19T08:45:18.655Z,11.00
2018-03-19T08:50:19.622Z,7.30
2018-03-19T08:55:20.573Z,9.07
2018-03-19T09:00:21.527Z,6.83
2018-03-19T09:05:22.465Z,12.27
2018-03-19T09:10:23.400Z,9.13
2018-03-19T09:15:24.342Z,11.80
2018-03-19T09:20:25.276Z,9.00
2018-03-19T09:25:26.250Z,12.20
2018-03-19T09:30:27.249Z,14.50
2018-03-19T09:35:28.217Z,11.93
2018-03-19T09:40:30.065Z,15.13
2018-03-19T09:45:31.005Z,11.43
2018-03-19T09:50:31.973Z,8.37
2018-03-19T09:55:32.947Z,8.03
2018-03-19T10:00:33.888Z,12.73
2018-03-19T10:05:34.840Z,10.17
2018-03-19T10:10:35.782Z,18.27
2018-03-19T10:15:36.741Z,7.40
2018-03-19T10:20:37.693Z,11.47
2018-03-19T10:25:38.664Z,10.17
2018-03-19T10:30:39.654Z,9.20
2018-03-19T10:35:40.615Z,13.60
2018-03-19T10:40:41.555Z,8.17
2018-03-19T10:45:42.554Z,13.20
2018-03-19T10:50:43.530Z,7.20
2018-03-19T10:55:44.488Z,9.20
2018-03-19T11:00:45.741Z,7.77
2018-03-19T11:05:49.645Z,9.83
2018-03-19T11:10:50.597Z,9.27
2018-03-19T11:15:51.553Z,6.90
2018-03-19T11:20:52.861Z,6.47
2018-03-19T11:25:53.858Z,7.70
2018-03-19T11:30:54.828Z,10.50
2018-03-19T11:35:55.790Z,12.27
2018-03-19T11:40:56.746Z,11.43
2018-03-19T11:45:57.688Z,7.10
2018-03-19T11:50:58.625Z,7.37
2018-03-19T11:55:59.609Z,7.73
2018-03-19T12:01:00.550Z,11.03
2018-03-19T12:28:27.525Z,8.70
2018-03-19T12:33:28.531Z,5.80
2018-03-19T12:38:30.374Z,10.93
2018-03-19T12:43:31.340Z,10.10
2018-03-19T12:48:32.296Z,8.43
2018-03-19T12:53:33.986Z,9.77
2018-03-19T12:58:34.950Z,10.33
2018-03-19T13:03:35.897Z,9.03
2018-03-19T13:08:36.875Z,11.57
2018-03-19T13:13:37.818Z,13.73
2018-03-19T13:18:38.781Z,5.87
2018-03-19T13:23:39.766Z,8.00
2018-03-19T13:28:40.706Z,12.37
2018-03-19T13:33:41.701Z,7.60
2018-03-19T13:38:42.634Z,9.30
2018-03-19T13:43:43.549Z,6.03
2018-03-19T13:48:44.475Z,7.40
2018-03-19T13:53:45.401Z,9.70
2018-03-19T13:58:46.363Z,8.30
2018-03-19T14:03:48.094Z,11.27
2018-03-19T14:08:49.653Z,8.20
2018-03-19T14:13:50.592Z,8.00
2018-03-19T14:18:51.554Z,13.10
2018-03-19T14:23:52.493Z,10.30
2018-03-19T14:28:53.437Z,8.57
2018-03-19T14:33:54.453Z,8.30
2018-03-19T14:38:55.382Z,10.30
2018-03-19T14:43:56.329Z,6.70
2018-03-19T14:48:57.305Z,9.33
2018-03-19T14:53:58.246Z,4.73
2018-03-19T14:58:59.218Z,6.33
2018-03-19T15:04:01.154Z,7.90
2018-03-19T15:09:02.112Z,7.20
2018-03-19T15:14:03.047Z,10.30
2018-03-19T15:19:04.025Z,9.67
2018-03-19T15:24:04.997Z,11.07
2018-03-19T15:29:05.937Z,8.10
2018-03-19T15:34:06.927Z,9.03
2018-03-19T15:39:07.869Z,8.50
2018-03-19T15:44:08.824Z,7.07
2018-03-19T15:49:09.776Z,8.00
2018-03-19T15:54:10.725Z,14.57
2018-03-19T15:59:11.671Z,12.70
2018-03-19T16:04:12.649Z,20.03
2018-03-19T16:09:13.618Z,14.70
2018-03-19T16:14:14.589Z,9.27
2018-03-19T16:19:15.591Z,8.77
2018-03-19T16:24:16.540Z,8.13
2018-03-19T16:29:17.521Z,8.77
2018-03-19T16:34:18.550Z,6.47
2018-03-19T16:39:19.504Z,10.80
2018-03-19T16:44:20.482Z,8.67
2018-03-19T16:49:21.474Z,8.93
2018-03-19T16:54:22.431Z,11.23
2018-03-19T16:59:23.470Z,7.87
2018-03-19T17:04:24.348Z,6.70
2018-03-19T17:09:25.310Z,7.87
2018-03-19T17:14:26.264Z,7.60
2018-03-19T17:19:27.200Z,8.37
2018-03-19T17:24:35.102Z,8.47
2018-03-19T17:29:36.868Z,12.50
2018-03-19T17:34:38.751Z,7.33
2018-03-19T17:39:39.725Z,9.43
2018-03-19T17:44:40.699Z,8.80
2018-03-19T17:49:41.651Z,11.20
2018-03-19T17:54:42.604Z,7.30
2018-03-19T17:59:43.573Z,7.10
2018-03-19T18:04:44.552Z,9.07
2018-03-19T18:09:45.674Z,8.23
2018-03-19T18:14:47.635Z,6.43
2018-03-19T18:19:48.650Z,9.83
2018-03-19T18:24:49.654Z,10.70
2018-03-19T18:29:50.638Z,8.80
2018-03-19T18:34:51.701Z,8.67
2018-03-19T18:39:52.695Z,11.40
2018-03-19T18:45:00.528Z,8.00
2018-03-19T18:50:01.540Z,10.40
2018-03-19T18:55:02.563Z,9.50
2018-03-19T19:00:03.591Z,18.50
2018-03-19T19:05:04.583Z,10.13
2018-03-19T19:10:05.549Z,9.60
2018-03-19T19:15:06.612Z,7.87
2018-03-19T19:20:07.583Z,7.30
2018-03-19T19:25:08.535Z,7.30
2018-03-19T19:30:09.526Z,9.83
2018-03-19T19:35:10.541Z,7.37
2018-03-19T19:40:11.529Z,6.40
2018-03-19T19:45:12.476Z,10.23
2018-03-19T19:50:13.447Z,11.57
2018-03-19T19:55:14.452Z,12.33
2018-03-19T20:00:15.465Z,24.33
2018-03-19T20:05:16.449Z,24.60
2018-03-19T20:10:17.492Z,18.03
2018-03-19T20:15:18.525Z,11.57
2018-03-19T20:20:19.509Z,31.97
2018-03-19T20:25:20.529Z,10.03
2018-03-19T20:30:21.562Z,16.80
2018-03-19T20:35:22.613Z,14.80
2018-03-19T20:40:23.610Z,25.27
2018-03-19T20:45:24.590Z,14.40
2018-03-19T20:50:25.561Z,14.30
2018-03-19T20:55:26.537Z,23.47
2018-03-19T21:00:27.521Z,18.93
2018-03-19T21:05:28.517Z,23.97
2018-03-19T21:10:29.501Z,19.90
2018-03-19T21:15:30.457Z,17.17
2018-03-19T21:20:31.437Z,31.07
2018-03-19T21:25:32.405Z,29.83
2018-03-19T21:30:33.570Z,25.97
2018-03-19T21:35:34.573Z,27.13
2018-03-19T21:40:35.537Z,27.43
2018-03-19T21:45:36.488Z,17.63
2018-03-19T21:50:37.441Z,26.80
2018-03-19T21:55:38.410Z,24.80
2018-03-19T22:00:39.381Z,20.20
2018-03-19T22:05:40.347Z,27.40
2018-03-19T22:10:41.296Z,34.90
2018-03-19T22:15:42.261Z,28.47
2018-03-19T22:20:43.230Z,15.20
2018-03-19T22:25:44.204Z,35.23
2018-03-19T22:30:45.214Z,22.83
2018-03-19T22:35:46.193Z,23.13
2018-03-19T22:40:47.114Z,26.33
2018-03-19T22:45:48.071Z,27.27
2018-03-19T22:50:49.004Z,39.17
2018-03-19T22:55:50.653Z,16.80
2018-03-19T23:00:51.613Z,35.90
2018-03-19T23:05:52.553Z,32.87
2018-03-19T23:10:53.476Z,40.73
2018-03-19T23:15:54.432Z,26.17
2018-03-19T23:20:55.347Z,22.27
2018-03-19T23:25:56.279Z,31.70
2018-03-19T23:30:57.263Z,26.23
2018-03-19T23:35:58.243Z,27.70
2018-03-19T23:40:59.161Z,31.67
2018-03-19T23:46:00.089Z,43.53
2018-03-19T23:51:01.031Z,30.93
2018-03-19T23:56:01.959Z,23.40
